sensor_id;sensor_type;location;lat;lon;timestamp;P1;durP1;ratioP1;P2;durP2;ratioP2
71174;SDS011;58876;51.994;4.472;2022-07-23T00:00:13;18033.39;;;11423.99;;
71174;SDS011;58876;51.994;4.472;2022-07-23T00:02:40;17319.17;;;11135.33;;
71174;SDS011;58876;51.994;4.472;2022-07-23T00:08:31;15991.74;;;10590.98;;
71174;SDS011;58876;51.994;4.472;2022-07-23T00:10:56;16694.15;;;10894.64;;
71174;SDS011;58876;51.994;4.472;2022-07-23T00:13:22;17221.94;;;11109.76;;
71174;SDS011;58876;51.994;4.472;2022-07-23T00:15:47;17023.41;;;10987.60;;
71174;SDS011;58876;51.994;4.472;2022-07-23T00:18:13;16779.46;;;10824.01;;
71174;SDS011;58876;51.994;4.472;2022-07-23T00:20:38;15833.40;;;10437.94;;
71174;SDS011;58876;51.994;4.472;2022-07-23T00:23:04;16165.79;;;10590.90;;
71174;SDS011;58876;51.994;4.472;2022-07-23T00:25:42;15636.44;;;10375.58;;
71174;SDS011;58876;51.994;4.472;2022-07-23T00:28:08;17386.68;;;11244.51;;
71174;SDS011;58876;51.994;4.472;2022-07-23T00:30:33;16335.77;;;10768.59;;
71174;SDS011;58876;51.994;4.472;2022-07-23T00:33:00;16268.74;;;10702.18;;
71174;SDS011;58876;51.994;4.472;2022-07-23T00:35:30;16598.68;;;10796.93;;
71174;SDS011;58876;51.994;4.472;2022-07-23T00:37:58;16442.98;;;10712.52;;
71174;SDS011;58876;51.994;4.472;2022-07-23T00:40:24;15651.09;;;10347.21;;
71174;SDS011;58876;51.994;4.472;2022-07-23T00:42:50;15757.28;;;10460.01;;
71174;SDS011;58876;51.994;4.472;2022-07-23T00:45:21;15767.50;;;10416.91;;
71174;SDS011;58876;51.994;4.472;2022-07-23T00:47:47;15943.63;;;10512.36;;
71174;SDS011;58876;51.994;4.472;2022-07-23T00:50:13;15589.31;;;10349.71;;
71174;SDS011;58876;51.994;4.472;2022-07-23T00:52:39;15879.61;;;10421.15;;
71174;SDS011;58876;51.994;4.472;2022-07-23T00:58:35;16963.29;;;10922.58;;
71174;SDS011;58876;51.994;4.472;2022-07-23T01:01:00;16347.76;;;10656.47;;
71174;SDS011;58876;51.994;4.472;2022-07-23T01:03:38;16076.04;;;10518.04;;
71174;SDS011;58876;51.994;4.472;2022-07-23T01:06:04;16177.03;;;10557.57;;
71174;SDS011;58876;51.994;4.472;2022-07-23T01:08:29;15508.65;;;10266.33;;
71174;SDS011;58876;51.994;4.472;2022-07-23T01:10:55;16231.65;;;10581.76;;
71174;SDS011;58876;51.994;4.472;2022-07-23T01:13:21;16819.46;;;10831.42;;
71174;SDS011;58876;51.994;4.472;2022-07-23T01:15:47;16685.51;;;10794.14;;
71174;SDS011;58876;51.994;4.472;2022-07-23T01:18:12;16537.68;;;10738.37;;
71174;SDS011;58876;51.994;4.472;2022-07-23T01:20:38;17045.39;;;10956.45;;
71174;SDS011;58876;51.994;4.472;2022-07-23T01:23:04;16490.18;;;10701.79;;
71174;SDS011;58876;51.994;4.472;2022-07-23T01:25:35;16760.48;;;10807.08;;
71174;SDS011;58876;51.994;4.472;2022-07-23T01:28:01;16654.98;;;10809.13;;
71174;SDS011;58876;51.994;4.472;2022-07-23T01:30:27;15738.27;;;10426.82;;
71174;SDS011;58876;51.994;4.472;2022-07-23T01:32:52;16224.99;;;10678.64;;
71174;SDS011;58876;51.994;4.472;2022-07-23T01:35:24;16092.98;;;10661.10;;
71174;SDS011;58876;51.994;4.472;2022-07-23T01:37:49;16233.54;;;10762.99;;
71174;SDS011;58876;51.994;4.472;2022-07-23T01:40:14;16564.35;;;10934.52;;
71174;SDS011;58876;51.994;4.472;2022-07-23T01:42:40;17331.11;;;11256.60;;
71174;SDS011;58876;51.994;4.472;2022-07-23T01:47:34;17695.18;;;11422.41;;
71174;SDS011;58876;51.994;4.472;2022-07-23T01:50:00;18224.52;;;11677.85;;
71174;SDS011;58876;51.994;4.472;2022-07-23T01:52:25;18203.70;;;11719.69;;
71174;SDS011;58876;51.994;4.472;2022-07-23T01:57:46;18184.01;;;11669.92;;
71174;SDS011;58876;51.994;4.472;2022-07-23T02:00:12;18281.42;;;11724.01;;
71174;SDS011;58876;51.994;4.472;2022-07-23T02:02:38;18361.18;;;11778.78;;
71174;SDS011;58876;51.994;4.472;2022-07-23T02:08:25;17583.31;;;11462.48;;
71174;SDS011;58876;51.994;4.472;2022-07-23T02:10:50;18108.35;;;11718.41;;
71174;SDS011;58876;51.994;4.472;2022-07-23T02:13:16;17352.48;;;11392.77;;
71174;SDS011;58876;51.994;4.472;2022-07-23T02:19:31;18194.81;;;11771.46;;
71174;SDS011;58876;51.994;4.472;2022-07-23T02:21:56;17815.81;;;11592.17;;
71174;SDS011;58876;51.994;4.472;2022-07-23T02:24:40;18191.52;;;11779.04;;
71174;SDS011;58876;51.994;4.472;2022-07-23T02:27:06;17800.48;;;11614.03;;
71174;SDS011;58876;51.994;4.472;2022-07-23T02:29:31;17372.74;;;11423.97;;
71174;SDS011;58876;51.994;4.472;2022-07-23T02:31:57;17285.70;;;11370.54;;
71174;SDS011;58876;51.994;4.472;2022-07-23T02:37:16;17881.70;;;11577.52;;
71174;SDS011;58876;51.994;4.472;2022-07-23T02:39:42;18350.00;;;11793.00;;
71174;SDS011;58876;51.994;4.472;2022-07-23T02:42:07;17886.02;;;11554.71;;
71174;SDS011;58876;51.994;4.472;2022-07-23T02:44:48;18126.67;;;11650.30;;
71174;SDS011;58876;51.994;4.472;2022-07-23T02:47:14;17765.78;;;11500.04;;
71174;SDS011;58876;51.994;4.472;2022-07-23T02:49:39;18045.10;;;11657.52;;
71174;SDS011;58876;51.994;4.472;2022-07-23T02:52:05;18061.97;;;11641.74;;
71174;SDS011;58876;51.994;4.472;2022-07-23T02:54:32;17523.79;;;11407.34;;
71174;SDS011;58876;51.994;4.472;2022-07-23T02:56:58;17206.99;;;11264.37;;
71174;SDS011;58876;51.994;4.472;2022-07-23T02:59:23;17480.15;;;11377.24;;
71174;SDS011;58876;51.994;4.472;2022-07-23T03:01:49;16801.10;;;11071.87;;
71174;SDS011;58876;51.994;4.472;2022-07-23T03:07:36;17882.39;;;11594.57;;
71174;SDS011;58876;51.994;4.472;2022-07-23T03:10:02;18181.96;;;11714.54;;
71174;SDS011;58876;51.994;4.472;2022-07-23T03:12:28;18235.03;;;11700.91;;
71174;SDS011;58876;51.994;4.472;2022-07-23T03:14:54;17761.12;;;11494.92;;
71174;SDS011;58876;51.994;4.472;2022-07-23T03:17:20;17320.58;;;11291.51;;
71174;SDS011;58876;51.994;4.472;2022-07-23T03:19:45;17179.05;;;11238.64;;
71174;SDS011;58876;51.994;4.472;2022-07-23T03:22:11;18851.80;;;11973.23;;
71174;SDS011;58876;51.994;4.472;2022-07-23T03:27:27;17673.60;;;11516.97;;
71174;SDS011;58876;51.994;4.472;2022-07-23T03:29:55;18178.68;;;11750.48;;
71174;SDS011;58876;51.994;4.472;2022-07-23T03:32:23;17838.40;;;11611.08;;
71174;SDS011;58876;51.994;4.472;2022-07-23T03:37:44;18254.88;;;11833.39;;
71174;SDS011;58876;51.994;4.472;2022-07-23T03:40:09;18117.58;;;11775.74;;
71174;SDS011;58876;51.994;4.472;2022-07-23T03:42:35;17839.57;;;11662.30;;
71174;SDS011;58876;51.994;4.472;2022-07-23T03:45:03;18241.51;;;11872.52;;
71174;SDS011;58876;51.994;4.472;2022-07-23T03:47:29;17803.39;;;11637.55;;
71174;SDS011;58876;51.994;4.472;2022-07-23T03:49:55;17681.71;;;11643.91;;
71174;SDS011;58876;51.994;4.472;2022-07-23T03:52:20;18239.43;;;11890.38;;
71174;SDS011;58876;51.994;4.472;2022-07-23T03:54:48;18181.32;;;11885.35;;
71174;SDS011;58876;51.994;4.472;2022-07-23T03:57:13;18136.18;;;11844.16;;
71174;SDS011;58876;51.994;4.472;2022-07-23T03:59:39;17449.86;;;11442.86;;
71174;SDS011;58876;51.994;4.472;2022-07-23T04:02:04;17897.23;;;11665.97;;
71174;SDS011;58876;51.994;4.472;2022-07-23T04:07:52;17423.69;;;11467.10;;
71174;SDS011;58876;51.994;4.472;2022-07-23T04:10:17;18333.13;;;11867.46;;
71174;SDS011;58876;51.994;4.472;2022-07-23T04:12:43;18287.77;;;11804.24;;
71174;SDS011;58876;51.994;4.472;2022-07-23T04:15:14;18257.03;;;11821.74;;
71174;SDS011;58876;51.994;4.472;2022-07-23T04:17:40;18444.41;;;11790.77;;
71174;SDS011;58876;51.994;4.472;2022-07-23T04:20:05;17860.79;;;11575.18;;
71174;SDS011;58876;51.994;4.472;2022-07-23T04:22:31;18363.37;;;11816.26;;
71174;SDS011;58876;51.994;4.472;2022-07-23T04:24:57;17675.56;;;11494.34;;
71174;SDS011;58876;51.994;4.472;2022-07-23T04:27:22;17870.22;;;11539.46;;
71174;SDS011;58876;51.994;4.472;2022-07-23T04:29:48;17093.92;;;11191.92;;
71174;SDS011;58876;51.994;4.472;2022-07-23T04:32:13;17770.74;;;11483.59;;
71174;SDS011;58876;51.994;4.472;2022-07-23T04:38:00;17074.66;;;11159.20;;
71174;SDS011;58876;51.994;4.472;2022-07-23T04:40:27;17441.09;;;11320.93;;
71174;SDS011;58876;51.994;4.472;2022-07-23T04:42:53;16952.71;;;11111.28;;
71174;SDS011;58876;51.994;4.472;2022-07-23T04:45:19;16988.42;;;11141.17;;
71174;SDS011;58876;51.994;4.472;2022-07-23T04:47:45;17146.24;;;11277.61;;
71174;SDS011;58876;51.994;4.472;2022-07-23T04:50:11;16882.89;;;11143.27;;
71174;SDS011;58876;51.994;4.472;2022-07-23T04:52:36;16802.52;;;11131.37;;
71174;SDS011;58876;51.994;4.472;2022-07-23T04:55:04;17288.51;;;11351.08;;
71174;SDS011;58876;51.994;4.472;2022-07-23T04:57:30;16652.65;;;11011.63;;
71174;SDS011;58876;51.994;4.472;2022-07-23T04:59:55;15871.27;;;10594.24;;
71174;SDS011;58876;51.994;4.472;2022-07-23T05:02:20;16015.05;;;10625.45;;
71174;SDS011;58876;51.994;4.472;2022-07-23T05:04:50;15917.40;;;10599.39;;
71174;SDS011;58876;51.994;4.472;2022-07-23T05:07:16;16636.46;;;10915.92;;
71174;SDS011;58876;51.994;4.472;2022-07-23T05:09:41;16361.82;;;10761.48;;
71174;SDS011;58876;51.994;4.472;2022-07-23T05:12:07;16559.93;;;10850.21;;
71174;SDS011;58876;51.994;4.472;2022-07-23T05:14:50;16876.70;;;11021.12;;
71174;SDS011;58876;51.994;4.472;2022-07-23T05:17:15;15263.88;;;10319.02;;
71174;SDS011;58876;51.994;4.472;2022-07-23T05:19:41;15976.97;;;10620.54;;
71174;SDS011;58876;51.994;4.472;2022-07-23T05:22:06;15438.85;;;10351.38;;
71174;SDS011;58876;51.994;4.472;2022-07-23T05:27:56;15316.29;;;10183.08;;
71174;SDS011;58876;51.994;4.472;2022-07-23T05:30:21;16127.63;;;10581.78;;
71174;SDS011;58876;51.994;4.472;2022-07-23T05:32:47;16323.08;;;10626.22;;
71174;SDS011;58876;51.994;4.472;2022-07-23T05:38:04;16124.47;;;10576.97;;
71174;SDS011;58876;51.994;4.472;2022-07-23T05:40:29;15448.79;;;10290.38;;
71174;SDS011;58876;51.994;4.472;2022-07-23T05:42:55;16550.91;;;10763.86;;
71174;SDS011;58876;51.994;4.472;2022-07-23T05:45:37;15458.61;;;10248.88;;
71174;SDS011;58876;51.994;4.472;2022-07-23T05:48:02;17019.47;;;10958.94;;
71174;SDS011;58876;51.994;4.472;2022-07-23T05:50:28;17981.26;;;11365.99;;
71174;SDS011;58876;51.994;4.472;2022-07-23T05:52:53;17330.05;;;11038.48;;
71174;SDS011;58876;51.994;4.472;2022-07-23T05:55:22;16888.61;;;10837.27;;
71174;SDS011;58876;51.994;4.472;2022-07-23T05:57:47;16862.14;;;10828.61;;
71174;SDS011;58876;51.994;4.472;2022-07-23T06:00:13;18659.08;;;11678.12;;
71174;SDS011;58876;51.994;4.472;2022-07-23T06:02:38;18755.22;;;11746.28;;
71174;SDS011;58876;51.994;4.472;2022-07-23T06:05:12;17256.29;;;11027.99;;
71174;SDS011;58876;51.994;4.472;2022-07-23T06:07:38;18466.99;;;11548.71;;
71174;SDS011;58876;51.994;4.472;2022-07-23T06:10:03;17845.83;;;11229.03;;
71174;SDS011;58876;51.994;4.472;2022-07-23T06:12:29;18303.23;;;11490.68;;
71174;SDS011;58876;51.994;4.472;2022-07-23T06:17:43;19733.76;;;12125.36;;
71174;SDS011;58876;51.994;4.472;2022-07-23T06:20:09;18311.40;;;11501.33;;
71174;SDS011;58876;51.994;4.472;2022-07-23T06:22:35;19248.43;;;11888.86;;
71174;SDS011;58876;51.994;4.472;2022-07-23T06:25:02;18606.23;;;11603.95;;
71174;SDS011;58876;51.994;4.472;2022-07-23T06:27:28;18329.60;;;11478.25;;
71174;SDS011;58876;51.994;4.472;2022-07-23T06:29:54;17929.09;;;11304.12;;
71174;SDS011;58876;51.994;4.472;2022-07-23T06:32:19;17459.11;;;11040.91;;
71174;SDS011;58876;51.994;4.472;2022-07-23T06:37:16;19280.26;;;11929.74;;
71174;SDS011;58876;51.994;4.472;2022-07-23T06:39:41;18518.67;;;11611.42;;
71174;SDS011;58876;51.994;4.472;2022-07-23T06:42:07;18708.24;;;11766.55;;
71174;SDS011;58876;51.994;4.472;2022-07-23T06:44:45;18090.30;;;11528.63;;
71174;SDS011;58876;51.994;4.472;2022-07-23T06:47:10;16463.66;;;10814.47;;
71174;SDS011;58876;51.994;4.472;2022-07-23T06:49:36;16713.74;;;10915.64;;
71174;SDS011;58876;51.994;4.472;2022-07-23T06:54:30;16499.47;;;10781.58;;
71174;SDS011;58876;51.994;4.472;2022-07-23T06:56:56;16326.56;;;10652.86;;
71174;SDS011;58876;51.994;4.472;2022-07-23T06:59:22;16260.69;;;10630.40;;
71174;SDS011;58876;51.994;4.472;2022-07-23T07:01:47;15769.56;;;10406.82;;
71174;SDS011;58876;51.994;4.472;2022-07-23T07:04:15;15777.02;;;10374.56;;
71174;SDS011;58876;51.994;4.472;2022-07-23T07:06:40;16359.54;;;10679.63;;
71174;SDS011;58876;51.994;4.472;2022-07-23T07:09:06;16760.87;;;10872.27;;
71174;SDS011;58876;51.994;4.472;2022-07-23T07:14:38;19024.18;;;12284.34;;
71174;SDS011;58876;51.994;4.472;2022-07-23T07:17:04;16720.36;;;10856.03;;
71174;SDS011;58876;51.994;4.472;2022-07-23T07:19:29;17477.92;;;11162.77;;
71174;SDS011;58876;51.994;4.472;2022-07-23T07:21:55;17446.00;;;11131.06;;
71174;SDS011;58876;51.994;4.472;2022-07-23T07:27:07;15349.82;;;10151.39;;
71174;SDS011;58876;51.994;4.472;2022-07-23T07:29:33;15944.93;;;10448.56;;
71174;SDS011;58876;51.994;4.472;2022-07-23T07:31:58;14678.27;;;9873.18;;
71174;SDS011;58876;51.994;4.472;2022-07-23T07:34:24;15676.08;;;10332.50;;
71174;SDS011;58876;51.994;4.472;2022-07-23T07:36:49;15099.56;;;10041.44;;
71174;SDS011;58876;51.994;4.472;2022-07-23T07:39:15;14745.64;;;9869.89;;
71174;SDS011;58876;51.994;4.472;2022-07-23T07:41:40;14348.71;;;9622.42;;
71174;SDS011;58876;51.994;4.472;2022-07-23T07:44:06;14709.36;;;9767.97;;
71174;SDS011;58876;51.994;4.472;2022-07-23T07:46:31;14211.57;;;9403.36;;
71174;SDS011;58876;51.994;4.472;2022-07-23T07:48:57;15346.28;;;9679.03;;
71174;SDS011;58876;51.994;4.472;2022-07-23T07:57:28;14768.91;;;9385.21;;
71174;SDS011;58876;51.994;4.472;2022-07-23T07:59:54;14027.79;;;9220.95;;
71174;SDS011;58876;51.994;4.472;2022-07-23T08:02:20;14863.34;;;9618.05;;
71174;SDS011;58876;51.994;4.472;2022-07-23T08:04:51;14445.39;;;9435.18;;
71174;SDS011;58876;51.994;4.472;2022-07-23T08:07:17;14752.99;;;9559.45;;
71174;SDS011;58876;51.994;4.472;2022-07-23T08:09:43;15250.59;;;9797.64;;
71174;SDS011;58876;51.994;4.472;2022-07-23T08:12:08;14151.46;;;9335.91;;
71174;SDS011;58876;51.994;4.472;2022-07-23T08:14:34;14709.84;;;9562.70;;
71174;SDS011;58876;51.994;4.472;2022-07-23T08:17:02;15146.25;;;9866.76;;
71174;SDS011;58876;51.994;4.472;2022-07-23T08:19:27;15246.24;;;9836.61;;
71174;SDS011;58876;51.994;4.472;2022-07-23T08:21:53;15610.34;;;9962.39;;
71174;SDS011;58876;51.994;4.472;2022-07-23T08:24:18;14550.74;;;9489.56;;
71174;SDS011;58876;51.994;4.472;2022-07-23T08:26:43;13824.40;;;9214.38;;
71174;SDS011;58876;51.994;4.472;2022-07-23T08:29:11;14842.84;;;10063.80;;
71174;SDS011;58876;51.994;4.472;2022-07-23T08:31:36;16153.39;;;10362.22;;
71174;SDS011;58876;51.994;4.472;2022-07-23T08:34:02;15872.13;;;10148.98;;
71174;SDS011;58876;51.994;4.472;2022-07-23T08:36:28;15556.01;;;9992.64;;
71174;SDS011;58876;51.994;4.472;2022-07-23T08:38:57;15604.21;;;10020.55;;
71174;SDS011;58876;51.994;4.472;2022-07-23T08:41:24;14472.11;;;9451.69;;
71174;SDS011;58876;51.994;4.472;2022-07-23T08:43:50;13645.83;;;8955.28;;
71174;SDS011;58876;51.994;4.472;2022-07-23T08:46:16;13671.04;;;9069.94;;
71174;SDS011;58876;51.994;4.472;2022-07-23T08:48:45;15538.27;;;9999.55;;
71174;SDS011;58876;51.994;4.472;2022-07-23T08:51:14;15680.84;;;10109.18;;
71174;SDS011;58876;51.994;4.472;2022-07-23T08:53:40;15172.86;;;9949.32;;
71174;SDS011;58876;51.994;4.472;2022-07-23T08:56:08;14270.05;;;9557.05;;
71174;SDS011;58876;51.994;4.472;2022-07-23T08:58:34;13916.72;;;9408.96;;
71174;SDS011;58876;51.994;4.472;2022-07-23T09:01:00;13783.76;;;9294.92;;
71174;SDS011;58876;51.994;4.472;2022-07-23T09:06:51;15521.38;;;9950.59;;
71174;SDS011;58876;51.994;4.472;2022-07-23T09:09:17;17361.43;;;10869.42;;
71174;SDS011;58876;51.994;4.472;2022-07-23T09:12:06;15437.13;;;10006.29;;
71174;SDS011;58876;51.994;4.472;2022-07-23T09:14:38;16137.69;;;10312.15;;
71174;SDS011;58876;51.994;4.472;2022-07-23T09:17:29;16135.65;;;10339.88;;
71174;SDS011;58876;51.994;4.472;2022-07-23T09:20:12;15659.92;;;10126.91;;
71174;SDS011;58876;51.994;4.472;2022-07-23T09:22:45;16577.03;;;10660.11;;
71174;SDS011;58876;51.994;4.472;2022-07-23T09:25:21;14539.62;;;9586.08;;
71174;SDS011;58876;51.994;4.472;2022-07-23T09:27:50;15071.21;;;9791.66;;
71174;SDS011;58876;51.994;4.472;2022-07-23T09:30:24;14743.05;;;9645.18;;
71174;SDS011;58876;51.994;4.472;2022-07-23T09:33:10;13880.53;;;9377.93;;
71174;SDS011;58876;51.994;4.472;2022-07-23T09:38:22;13655.41;;;9105.98;;
71174;SDS011;58876;51.994;4.472;2022-07-23T09:41:08;14832.13;;;9682.74;;
71174;SDS011;58876;51.994;4.472;2022-07-23T09:43:35;14675.82;;;9753.19;;
71174;SDS011;58876;51.994;4.472;2022-07-23T09:46:16;15447.94;;;9948.50;;
71174;SDS011;58876;51.994;4.472;2022-07-23T09:48:48;13569.11;;;9079.53;;
71174;SDS011;58876;51.994;4.472;2022-07-23T09:51:16;14337.06;;;9398.49;;
71174;SDS011;58876;51.994;4.472;2022-07-23T09:53:52;13542.02;;;9028.84;;
71174;SDS011;58876;51.994;4.472;2022-07-23T09:56:18;13512.84;;;8921.82;;
71174;SDS011;58876;51.994;4.472;2022-07-23T09:58:46;14499.07;;;9405.57;;
71174;SDS011;58876;51.994;4.472;2022-07-23T10:01:17;13154.49;;;8839.65;;
71174;SDS011;58876;51.994;4.472;2022-07-23T10:06:46;14212.76;;;9400.78;;
71174;SDS011;58876;51.994;4.472;2022-07-23T10:09:15;14269.43;;;9275.73;;
71174;SDS011;58876;51.994;4.472;2022-07-23T10:11:48;13964.30;;;9277.36;;
71174;SDS011;58876;51.994;4.472;2022-07-23T10:14:19;14006.50;;;9178.32;;
71174;SDS011;58876;51.994;4.472;2022-07-23T10:16:48;13339.74;;;8891.50;;
71174;SDS011;58876;51.994;4.472;2022-07-23T10:19:17;14571.17;;;9634.48;;
71174;SDS011;58876;51.994;4.472;2022-07-23T10:25:10;15652.33;;;10007.47;;
71174;SDS011;58876;51.994;4.472;2022-07-23T10:30:57;14887.27;;;9657.55;;
71174;SDS011;58876;51.994;4.472;2022-07-23T10:39:18;13786.06;;;9195.66;;
71174;SDS011;58876;51.994;4.472;2022-07-23T10:41:49;14359.15;;;9367.55;;
71174;SDS011;58876;51.994;4.472;2022-07-23T10:44:38;14223.19;;;9127.53;;
71174;SDS011;58876;51.994;4.472;2022-07-23T10:47:15;14544.82;;;9265.34;;
71174;SDS011;58876;51.994;4.472;2022-07-23T10:50:16;13405.24;;;8862.57;;
71174;SDS011;58876;51.994;4.472;2022-07-23T10:55:42;14820.10;;;9400.41;;
71174;SDS011;58876;51.994;4.472;2022-07-23T10:58:17;15255.15;;;9508.10;;
71174;SDS011;58876;51.994;4.472;2022-07-23T11:00:48;15882.86;;;9711.18;;
71174;SDS011;58876;51.994;4.472;2022-07-23T11:06:21;15823.94;;;9598.62;;
71174;SDS011;58876;51.994;4.472;2022-07-23T11:08:46;15023.73;;;9386.85;;
71174;SDS011;58876;51.994;4.472;2022-07-23T11:11:11;15932.19;;;9711.05;;
71174;SDS011;58876;51.994;4.472;2022-07-23T11:16:46;15281.95;;;9478.34;;
71174;SDS011;58876;51.994;4.472;2022-07-23T11:19:13;15143.72;;;9521.72;;
71174;SDS011;58876;51.994;4.472;2022-07-23T11:24:12;15079.00;;;9618.61;;
71174;SDS011;58876;51.994;4.472;2022-07-23T11:31:52;14908.63;;;9566.01;;
71174;SDS011;58876;51.994;4.472;2022-07-23T11:37:03;14530.59;;;9217.57;;
71174;SDS011;58876;51.994;4.472;2022-07-23T11:39:31;14993.78;;;9462.74;;
71174;SDS011;58876;51.994;4.472;2022-07-23T11:41:59;14607.66;;;9282.33;;
71174;SDS011;58876;51.994;4.472;2022-07-23T11:47:25;13763.08;;;9040.05;;
71174;SDS011;58876;51.994;4.472;2022-07-23T11:49:52;13962.81;;;9113.77;;
71174;SDS011;58876;51.994;4.472;2022-07-23T11:52:22;13717.41;;;8951.20;;
71174;SDS011;58876;51.994;4.472;2022-07-23T11:54:50;13607.38;;;9001.87;;
71174;SDS011;58876;51.994;4.472;2022-07-23T11:57:25;14387.40;;;9435.26;;
71174;SDS011;58876;51.994;4.472;2022-07-23T11:59:55;16245.15;;;10284.51;;
71174;SDS011;58876;51.994;4.472;2022-07-23T12:02:33;16005.79;;;10194.44;;
71174;SDS011;58876;51.994;4.472;2022-07-23T12:05:01;15865.91;;;10097.71;;
71174;SDS011;58876;51.994;4.472;2022-07-23T12:07:33;15880.16;;;10111.22;;
71174;SDS011;58876;51.994;4.472;2022-07-23T12:10:14;15584.88;;;9963.00;;
71174;SDS011;58876;51.994;4.472;2022-07-23T12:12:43;15799.43;;;10100.04;;
71174;SDS011;58876;51.994;4.472;2022-07-23T12:18:16;14555.86;;;9361.97;;
71174;SDS011;58876;51.994;4.472;2022-07-23T12:20:49;14738.17;;;9524.31;;
71174;SDS011;58876;51.994;4.472;2022-07-23T12:23:18;15808.24;;;10103.76;;
71174;SDS011;58876;51.994;4.472;2022-07-23T12:25:46;16099.66;;;10213.49;;
71174;SDS011;58876;51.994;4.472;2022-07-23T12:28:51;15674.89;;;10056.81;;
71174;SDS011;58876;51.994;4.472;2022-07-23T12:31:07;15433.33;;;9962.20;;
71174;SDS011;58876;51.994;4.472;2022-07-23T12:33:34;14907.04;;;9705.10;;
71174;SDS011;58876;51.994;4.472;2022-07-23T12:36:05;13657.83;;;9116.54;;
71174;SDS011;58876;51.994;4.472;2022-07-23T12:38:39;14172.29;;;9330.56;;
71174;SDS011;58876;51.994;4.472;2022-07-23T12:41:07;13483.20;;;9003.70;;
71174;SDS011;58876;51.994;4.472;2022-07-23T12:43:35;15352.89;;;9865.91;;
71174;SDS011;58876;51.994;4.472;2022-07-23T12:48:30;13402.95;;;8839.47;;
71174;SDS011;58876;51.994;4.472;2022-07-23T12:51:00;14347.03;;;9247.27;;
71174;SDS011;58876;51.994;4.472;2022-07-23T12:56:11;15066.73;;;9743.67;;
71174;SDS011;58876;51.994;4.472;2022-07-23T12:58:40;15503.27;;;9929.88;;
71174;SDS011;58876;51.994;4.472;2022-07-23T13:06:38;15837.26;;;10078.67;;
71174;SDS011;58876;51.994;4.472;2022-07-23T13:09:10;16199.20;;;10279.01;;
71174;SDS011;58876;51.994;4.472;2022-07-23T13:11:38;15045.28;;;9742.71;;
71174;SDS011;58876;51.994;4.472;2022-07-23T13:14:04;14156.50;;;9345.60;;
71174;SDS011;58876;51.994;4.472;2022-07-23T13:16:30;14086.54;;;9302.70;;
71174;SDS011;58876;51.994;4.472;2022-07-23T13:18:57;14048.26;;;9266.55;;
71174;SDS011;58876;51.994;4.472;2022-07-23T13:21:23;15898.19;;;10111.76;;
71174;SDS011;58876;51.994;4.472;2022-07-23T13:23:49;15019.35;;;9733.38;;
71174;SDS011;58876;51.994;4.472;2022-07-23T13:26:15;14624.00;;;9514.57;;
71174;SDS011;58876;51.994;4.472;2022-07-23T13:28:40;14551.43;;;9415.04;;
71174;SDS011;58876;51.994;4.472;2022-07-23T13:31:06;15186.80;;;9737.18;;
71174;SDS011;58876;51.994;4.472;2022-07-23T13:33:32;14516.68;;;9463.70;;
71174;SDS011;58876;51.994;4.472;2022-07-23T13:35:58;15721.88;;;10002.01;;
71174;SDS011;58876;51.994;4.472;2022-07-23T13:38:23;16037.76;;;10189.37;;
71174;SDS011;58876;51.994;4.472;2022-07-23T13:40:49;16328.55;;;10298.83;;
71174;SDS011;58876;51.994;4.472;2022-07-23T13:43:17;15917.89;;;10088.40;;
71174;SDS011;58876;51.994;4.472;2022-07-23T13:45:45;15801.52;;;10076.76;;
71174;SDS011;58876;51.994;4.472;2022-07-23T13:48:11;16333.41;;;10286.98;;
71174;SDS011;58876;51.994;4.472;2022-07-23T13:50:39;15763.37;;;10063.58;;
71174;SDS011;58876;51.994;4.472;2022-07-23T13:53:07;14692.53;;;9551.22;;
71174;SDS011;58876;51.994;4.472;2022-07-23T13:55:35;14777.85;;;9576.96;;
71174;SDS011;58876;51.994;4.472;2022-07-23T13:58:00;16304.18;;;10310.78;;
71174;SDS011;58876;51.994;4.472;2022-07-23T14:00:28;16589.00;;;10471.08;;
71174;SDS011;58876;51.994;4.472;2022-07-23T14:02:56;16460.64;;;10409.74;;
71174;SDS011;58876;51.994;4.472;2022-07-23T14:05:23;15340.21;;;9921.20;;
71174;SDS011;58876;51.994;4.472;2022-07-23T14:07:48;15351.32;;;9926.46;;
71174;SDS011;58876;51.994;4.472;2022-07-23T14:10:15;13923.40;;;9224.20;;
71174;SDS011;58876;51.994;4.472;2022-07-23T14:12:45;13174.58;;;8881.25;;
71174;SDS011;58876;51.994;4.472;2022-07-23T14:15:12;13759.31;;;9146.50;;
71174;SDS011;58876;51.994;4.472;2022-07-23T14:17:39;13220.75;;;8945.94;;
71174;SDS011;58876;51.994;4.472;2022-07-23T14:20:06;12549.59;;;8559.20;;
71174;SDS011;58876;51.994;4.472;2022-07-23T14:22:35;13330.96;;;8952.85;;
71174;SDS011;58876;51.994;4.472;2022-07-23T14:25:05;14423.76;;;9420.55;;
71174;SDS011;58876;51.994;4.472;2022-07-23T14:27:32;14387.78;;;9419.80;;
71174;SDS011;58876;51.994;4.472;2022-07-23T14:30:01;13260.86;;;8931.38;;
71174;SDS011;58876;51.994;4.472;2022-07-23T14:32:29;12830.78;;;8667.66;;
71174;SDS011;58876;51.994;4.472;2022-07-23T14:34:55;12980.31;;;8674.80;;
71174;SDS011;58876;51.994;4.472;2022-07-23T14:37:20;13974.81;;;9206.32;;
71174;SDS011;58876;51.994;4.472;2022-07-23T14:39:46;12843.91;;;8649.09;;
71174;SDS011;58876;51.994;4.472;2022-07-23T14:42:12;12540.70;;;8526.75;;
71174;SDS011;58876;51.994;4.472;2022-07-23T14:48:00;14286.62;;;9356.80;;
71174;SDS011;58876;51.994;4.472;2022-07-23T14:50:28;14088.38;;;9324.78;;
71174;SDS011;58876;51.994;4.472;2022-07-23T14:52:54;13326.13;;;8937.58;;
71174;SDS011;58876;51.994;4.472;2022-07-23T14:55:26;13297.42;;;8863.00;;
71174;SDS011;58876;51.994;4.472;2022-07-23T14:57:51;13554.79;;;9063.86;;
71174;SDS011;58876;51.994;4.472;2022-07-23T15:00:17;14311.48;;;9418.25;;
71174;SDS011;58876;51.994;4.472;2022-07-23T15:02:42;13375.45;;;8940.42;;
71174;SDS011;58876;51.994;4.472;2022-07-23T15:05:15;15045.18;;;9760.10;;
71174;SDS011;58876;51.994;4.472;2022-07-23T15:07:40;14877.64;;;9649.28;;
71174;SDS011;58876;51.994;4.472;2022-07-23T15:10:06;13033.02;;;8784.82;;
71174;SDS011;58876;51.994;4.472;2022-07-23T15:12:32;13198.55;;;8871.20;;
71174;SDS011;58876;51.994;4.472;2022-07-23T15:14:57;13725.90;;;9132.96;;
71174;SDS011;58876;51.994;4.472;2022-07-23T15:17:23;12947.92;;;8816.59;;
71174;SDS011;58876;51.994;4.472;2022-07-23T15:19:49;14366.90;;;9422.14;;
71174;SDS011;58876;51.994;4.472;2022-07-23T15:22:16;14580.57;;;9507.20;;